Terminal Aerodrome Forecast
Issued by NWS Tuscon, AZ

Home | Current Version | Previous Version | Text Only | Print | Product List | Glossary On
Versions: 1 2 3 4 5 6 7 8 9 10 11 12
000
FTUS45 KTWC 271132
TAFTUS
TAF
KTUS 271132Z 2712/2812 14007KT P6SM BKN250
     FM271700 17009KT P6SM BKN250
     FM272000 25012G20KT P6SM BKN250
     FM280300 28007KT P6SM SCT250
     FM280800 15006KT P6SM FEW250=

USA.gov is the U.S. government's official web portal to all federal, state and local government web resources and services.